createdAt,value
2023-04-26T00:00:47.754Z,97472.97
2023-04-26T00:04:56.576Z,97475.97
2023-04-26T00:08:59.752Z,97482.09
2023-04-26T00:13:05.480Z,97484.69
2023-04-26T00:17:08.817Z,97491.53
2023-04-26T00:21:12.321Z,97488.50
2023-04-26T00:25:15.616Z,97486.44
2023-04-26T00:29:20.878Z,97499.50
2023-04-26T00:33:24.392Z,97496.31
2023-04-26T00:37:27.923Z,97498.31
2023-04-26T00:41:31.097Z,97497.72
2023-04-26T00:45:38.959Z,97493.72
2023-04-26T00:49:42.166Z,97501.75
2023-04-26T00:53:47.610Z,97495.16
2023-04-26T00:57:51.081Z,97498.25
2023-04-26T01:01:57.012Z,97497.16
2023-04-26T01:06:01.161Z,97485.00
2023-04-26T01:10:06.969Z,97490.84
2023-04-26T01:14:11.838Z,97495.06
2023-04-26T01:18:19.671Z,97478.53
2023-04-26T01:22:24.056Z,97483.72
2023-04-26T01:26:29.089Z,97495.06
2023-04-26T01:30:32.164Z,97490.84
2023-04-26T01:34:37.098Z,97496.69
2023-04-26T01:38:40.703Z,97499.00
2023-04-26T01:42:45.760Z,97495.16
2023-04-26T01:46:48.959Z,97494.84
2023-04-26T01:50:52.878Z,97506.88
2023-04-26T01:54:56.177Z,97499.59
2023-04-26T01:59:01.329Z,97494.25
2023-04-26T02:03:04.785Z,97502.72
2023-04-26T02:07:08.726Z,97507.91
2023-04-26T02:11:12.248Z,97514.72
2023-04-26T02:15:17.554Z,97512.94
2023-04-26T02:19:21.173Z,97512.13
2023-04-26T02:23:25.267Z,97520.44
2023-04-26T02:27:29.297Z,97502.41
2023-04-26T02:31:36.930Z,97505.66
2023-04-26T02:35:40.365Z,97516.03
2023-04-26T02:39:45.274Z,97510.84
2023-04-26T02:43:48.585Z,97508.09
2023-04-26T02:47:54.092Z,97513.00
2023-04-26T02:51:57.124Z,97507.00
2023-04-26T02:56:01.650Z,97505.06
2023-04-26T03:00:08.447Z,97501.50
2023-04-26T03:04:14.546Z,97499.56
2023-04-26T03:08:18.219Z,97493.06
2023-04-26T03:12:22.009Z,97499.81
2023-04-26T03:16:27.710Z,97514.81
2023-04-26T03:20:33.134Z,97517.25
2023-04-26T03:24:36.189Z,97517.50
2023-04-26T03:28:40.644Z,97521.19
2023-04-26T03:32:44.058Z,97515.16
2023-04-26T03:36:49.115Z,97514.25
2023-04-26T03:40:52.333Z,97527.97
2023-04-26T03:44:56.067Z,97531.03
2023-04-26T03:48:59.314Z,97537.31
2023-04-26T03:53:05.149Z,97532.00
2023-04-26T03:57:08.644Z,97538.97
2023-04-26T04:01:16.852Z,97541.16
2023-04-26T04:05:20.251Z,97547.97
2023-04-26T04:09:25.649Z,97547.41
2023-04-26T04:13:29.611Z,97558.59
2023-04-26T04:17:33.449Z,97557.75
2023-04-26T04:21:36.797Z,97558.97
2023-04-26T04:25:42.819Z,97554.44
2023-04-26T04:29:46.435Z,97559.28
2023-04-26T04:33:50.975Z,97560.91
2023-04-26T04:37:54.369Z,97563.44
2023-04-26T04:42:01.017Z,97572.94
2023-04-26T04:46:04.929Z,97574.69
2023-04-26T04:50:10.383Z,97571.50
2023-04-26T04:54:15.432Z,97583.59
2023-04-26T04:58:22.096Z,97585.34
2023-04-26T05:02:25.764Z,97595.00
2023-04-26T05:06:30.192Z,97590.56
2023-04-26T05:10:33.389Z,97602.50
2023-04-26T05:14:44.216Z,97605.41
2023-04-26T05:18:47.860Z,97611.06
2023-04-26T05:22:51.975Z,97613.13
2023-04-26T05:26:54.913Z,97616.63
2023-04-26T05:31:02.719Z,97614.78
2023-04-26T05:35:06.758Z,97621.69
2023-04-26T05:39:11.273Z,97624.66
2023-04-26T05:43:14.579Z,97631.84
2023-04-26T05:47:20.640Z,97635.47
2023-04-26T05:51:23.639Z,97634.72
2023-04-26T05:55:27.554Z,97638.03
2023-04-26T05:59:33.273Z,97638.44
2023-04-26T06:03:38.876Z,97641.16
2023-04-26T06:07:42.335Z,97638.44
2023-04-26T06:11:46.465Z,97640.78
2023-04-26T06:15:51.823Z,97647.19
2023-04-26T06:19:56.886Z,97642.38
2023-04-26T06:23:59.770Z,97644.88
2023-04-26T06:28:04.372Z,97649.19
2023-04-26T06:32:08.209Z,97646.63
2023-04-26T06:36:14.861Z,97654.13
2023-04-26T06:40:18.352Z,97658.25
2023-04-26T06:44:23.063Z,97655.63
2023-04-26T06:48:26.413Z,97659.72
2023-04-26T06:52:31.535Z,97662.34
2023-04-26T06:56:34.959Z,97663.44
2023-04-26T07:00:38.536Z,97666.22
2023-04-26T07:04:41.864Z,97668.50
2023-04-26T07:08:47.175Z,97669.78
2023-04-26T07:12:50.292Z,97672.06
2023-04-26T07:16:54.487Z,97666.53
2023-04-26T07:20:57.652Z,97672.72
2023-04-26T07:25:02.337Z,97676.78
2023-04-26T07:29:05.544Z,97672.97
2023-04-26T07:33:11.394Z,97666.00
2023-04-26T07:37:14.374Z,97672.09
2023-04-26T07:41:19.323Z,97673.56
2023-04-26T07:45:23.041Z,97668.56
2023-04-26T07:49:27.259Z,97670.69
2023-04-26T07:53:30.610Z,97670.22
2023-04-26T07:57:35.651Z,97668.44
2023-04-26T08:01:38.991Z,97673.78
2023-04-26T08:05:43.947Z,97680.19
2023-04-26T08:09:47.673Z,97677.00
2023-04-26T08:13:55.319Z,97677.97
2023-04-26T08:17:58.723Z,97685.47
2023-04-26T08:22:02.861Z,97672.69
2023-04-26T08:26:06.964Z,97668.63
2023-04-26T08:30:12.667Z,97669.13
2023-04-26T08:34:15.703Z,97685.63
2023-04-26T08:38:19.250Z,97678.09
2023-04-26T08:42:26.187Z,97685.94
2023-04-26T08:46:35.879Z,97678.25
2023-04-26T08:50:40.614Z,97677.47
2023-04-26T08:54:44.522Z,97687.16
2023-04-26T08:58:48.165Z,97680.81
2023-04-26T09:02:54.365Z,97683.91
2023-04-26T09:07:03.860Z,97686.16
2023-04-26T09:11:07.924Z,97685.16
2023-04-26T09:15:13.937Z,97684.38
2023-04-26T09:19:19.125Z,97682.34
2023-04-26T09:23:24.547Z,97668.63
2023-04-26T09:27:36.040Z,97670.91
2023-04-26T09:31:41.300Z,97657.38
2023-04-26T09:35:47.071Z,97669.78
2023-04-26T09:39:50.029Z,97667.78
2023-04-26T09:43:54.377Z,97661.16
2023-04-26T09:47:57.957Z,97669.69
2023-04-26T09:52:04.430Z,97658.63
2023-04-26T09:56:09.868Z,97657.75
2023-04-26T10:00:16.063Z,97660.59
2023-04-26T10:04:19.414Z,97645.19
2023-04-26T10:08:24.695Z,97648.94
2023-04-26T10:12:28.543Z,97639.19
2023-04-26T10:16:33.867Z,97653.66
2023-04-26T10:20:41.699Z,97656.16
2023-04-26T10:24:47.627Z,97648.94
2023-04-26T10:29:05.532Z,97590.28
2023-04-26T10:33:15.566Z,97655.69
2023-04-26T10:37:18.713Z,97649.84
2023-04-26T10:41:40.430Z,97657.16
2023-04-26T10:45:44.454Z,97644.78
2023-04-26T10:49:49.632Z,97644.72
2023-04-26T10:54:04.200Z,97642.50
2023-04-26T10:58:28.466Z,97630.41
2023-04-26T11:02:49.830Z,97627.78
2023-04-26T11:06:55.808Z,97624.16
2023-04-26T11:11:10.389Z,97625.47
2023-04-26T11:15:16.694Z,97630.78
2023-04-26T11:19:19.886Z,97624.09
2023-04-26T11:23:25.831Z,97628.94
2023-04-26T11:27:29.589Z,97626.81
2023-04-26T11:31:34.575Z,97619.38
2023-04-26T11:35:37.722Z,97627.94
2023-04-26T11:39:41.121Z,97626.88
2023-04-26T11:43:44.429Z,97632.50
2023-04-26T11:47:49.505Z,97636.13
2023-04-26T11:51:52.806Z,97637.69
2023-04-26T11:55:56.643Z,97626.63
2023-04-26T12:00:11.004Z,97625.44
2023-04-26T12:04:15.808Z,97607.19
2023-04-26T12:08:18.974Z,97616.53
2023-04-26T12:12:25.681Z,97624.50
2023-04-26T12:16:29.550Z,97610.63
2023-04-26T12:20:35.964Z,97607.25
2023-04-26T12:24:43.956Z,97606.00
2023-04-26T12:28:47.628Z,97606.38
2023-04-26T12:32:51.272Z,97601.31
2023-04-26T12:36:56.378Z,97594.81
2023-04-26T12:40:59.570Z,97606.19
2023-04-26T12:45:03.101Z,97601.97
2023-04-26T12:49:07.820Z,97603.59
2023-04-26T12:53:12.985Z,97612.09
2023-04-26T12:57:16.910Z,97601.50
2023-04-26T13:01:20.555Z,97610.81
2023-04-26T13:05:24.742Z,97603.69
2023-04-26T13:09:29.584Z,97599.63
2023-04-26T13:13:43.051Z,97602.84
2023-04-26T13:17:47.952Z,97609.94
2023-04-26T13:21:52.570Z,97607.91
2023-04-26T13:25:57.662Z,97611.13
2023-04-26T13:30:01.780Z,97610.28
2023-04-26T13:34:05.750Z,97605.81
2023-04-26T13:38:08.712Z,97599.59
2023-04-26T13:42:15.535Z,97600.66
2023-04-26T13:46:18.811Z,97601.88
2023-04-26T13:50:22.174Z,97594.22
2023-04-26T13:54:26.058Z,97595.63
2023-04-26T13:58:31.594Z,97589.59
2023-04-26T14:02:34.683Z,97589.41
2023-04-26T14:06:38.553Z,97596.25
2023-04-26T14:10:41.895Z,97587.97
2023-04-26T14:14:51.127Z,97587.75
2023-04-26T14:18:54.897Z,97588.56
2023-04-26T14:22:58.390Z,97586.13
2023-04-26T14:27:04.973Z,97587.72
2023-04-26T14:31:10.100Z,97588.13
2023-04-26T14:35:13.831Z,97587.25
2023-04-26T14:39:17.532Z,97586.19
2023-04-26T14:43:21.071Z,97582.53
2023-04-26T14:47:25.603Z,97578.50
2023-04-26T14:51:28.790Z,97579.09
2023-04-26T14:55:33.605Z,97576.25
2023-04-26T14:59:36.593Z,97580.31
2023-04-26T15:03:42.037Z,97569.84
2023-04-26T15:07:46.913Z,97571.88
2023-04-26T15:11:50.315Z,97567.25
2023-04-26T15:15:55.593Z,97573.53
2023-04-26T15:20:00.650Z,97570.91
2023-04-26T15:24:03.620Z,97572.56
2023-04-26T15:28:08.318Z,97573.53
2023-04-26T15:32:11.616Z,97576.56
2023-04-26T15:36:17.175Z,97576.75
2023-04-26T15:40:20.169Z,97575.53
2023-04-26T15:44:23.861Z,97577.38
2023-04-26T15:48:27.399Z,97573.28
2023-04-26T15:52:36.279Z,97570.66
2023-04-26T15:56:41.027Z,97559.31
2023-04-26T16:00:44.451Z,97557.28
2023-04-26T16:04:48.943Z,97553.19
2023-04-26T16:08:54.302Z,97553.50
2023-04-26T16:12:58.300Z,97564.38
2023-04-26T16:17:05.597Z,97561.09
2023-04-26T16:21:10.038Z,97548.03
2023-04-26T16:25:17.720Z,97550.94
2023-04-26T16:29:21.342Z,97549.34
2023-04-26T16:33:24.900Z,97559.50
2023-04-26T16:37:28.112Z,97553.13
2023-04-26T16:41:32.835Z,97544.66
2023-04-26T16:45:35.778Z,97555.25
2023-04-26T16:49:39.038Z,97546.59
2023-04-26T16:53:42.486Z,97551.28
2023-04-26T16:57:47.228Z,97555.38
2023-04-26T17:01:50.909Z,97558.38
2023-04-26T17:05:57.148Z,97556.88
2023-04-26T17:10:01.075Z,97564.22
2023-04-26T17:14:07.096Z,97574.84
2023-04-26T17:18:11.439Z,97573.97
2023-04-26T17:22:14.476Z,97578.69
2023-04-26T17:26:18.271Z,97582.88
2023-04-26T17:30:24.209Z,97585.06
2023-04-26T17:34:27.775Z,97591.06
2023-04-26T17:38:31.448Z,97594.31
2023-04-26T17:42:34.834Z,97596.38
2023-04-26T17:46:40.142Z,97601.53
2023-04-26T17:50:43.904Z,97598.53
2023-04-26T17:54:48.634Z,97602.38
2023-04-26T17:58:52.169Z,97611.75
2023-04-26T18:02:58.807Z,97611.06
2023-04-26T18:07:04.434Z,97612.84
2023-04-26T18:11:08.137Z,97617.19
2023-04-26T18:15:11.595Z,97620.06
2023-04-26T18:19:16.666Z,97628.59
2023-04-26T18:23:19.946Z,97622.63
2023-04-26T18:27:24.091Z,97629.38
2023-04-26T18:31:28.072Z,97636.69
2023-04-26T18:35:33.253Z,97635.91
2023-04-26T18:39:37.424Z,97636.88
2023-04-26T18:43:40.932Z,97638.69
2023-04-26T18:47:44.120Z,97638.84
2023-04-26T18:51:49.541Z,97649.63
2023-04-26T18:55:53.664Z,97655.16
2023-04-26T18:59:59.556Z,97667.38
2023-04-26T19:04:02.885Z,97666.72
2023-04-26T19:08:09.210Z,97671.44
2023-04-26T19:12:12.590Z,97676.97
2023-04-26T19:16:16.685Z,97667.53
2023-04-26T19:20:20.929Z,97665.22
2023-04-26T19:24:25.883Z,97664.72
2023-04-26T19:28:29.779Z,97675.81
2023-04-26T19:32:33.437Z,97680.88
2023-04-26T19:36:37.186Z,97676.31
2023-04-26T19:40:43.230Z,97673.56
2023-04-26T19:44:46.637Z,97681.38
2023-04-26T19:48:50.034Z,97679.72
2023-04-26T19:52:55.430Z,97686.06
2023-04-26T19:57:02.176Z,97690.16
2023-04-26T20:01:05.267Z,97696.34
2023-04-26T20:05:10.223Z,97704.97
2023-04-26T20:09:13.772Z,97693.41
2023-04-26T20:13:19.302Z,97688.84
2023-04-26T20:17:22.202Z,97701.06
2023-04-26T20:21:28.750Z,97689.03
2023-04-26T20:25:33.066Z,97696.19
2023-04-26T20:29:38.764Z,97687.69
2023-04-26T20:33:43.181Z,97687.53
2023-04-26T20:37:49.311Z,97687.34
2023-04-26T20:41:52.474Z,97685.72
2023-04-26T20:45:58.111Z,97685.50
2023-04-26T20:50:01.616Z,97685.81
2023-04-26T20:54:05.517Z,97689.16
2023-04-26T20:58:08.601Z,97692.69
2023-04-26T21:02:13.842Z,97696.75
2023-04-26T21:06:16.986Z,97703.09
2023-04-26T21:10:20.932Z,97704.72
2023-04-26T21:14:24.029Z,97694.28
2023-04-26T21:18:29.746Z,97699.19
2023-04-26T21:22:32.835Z,97706.06
2023-04-26T21:26:36.959Z,97704.56
2023-04-26T21:30:39.992Z,97712.66
2023-04-26T21:34:45.471Z,97694.41
2023-04-26T21:38:48.554Z,97722.53
2023-04-26T21:43:04.033Z,97724.19
2023-04-26T21:47:08.307Z,97719.28
2023-04-26T21:51:13.444Z,97728.22
2023-04-26T21:55:16.925Z,97731.13
2023-04-26T21:59:20.976Z,97745.25
2023-04-26T22:03:24.217Z,97735.78
2023-04-26T22:07:29.700Z,97744.22
2023-04-26T22:11:33.162Z,97753.00
2023-04-26T22:15:36.942Z,97748.94
2023-04-26T22:19:40.643Z,97756.88
2023-04-26T22:23:45.246Z,97760.47
2023-04-26T22:32:05.443Z,97760.25
2023-04-26T22:36:09.232Z,97775.84
2023-04-26T22:40:17.715Z,97773.41
2023-04-26T22:44:20.807Z,97783.81
2023-04-26T22:48:24.866Z,97783.81
2023-04-26T22:52:31.475Z,97785.75
2023-04-26T22:56:37.666Z,97784.09
2023-04-26T23:00:40.671Z,97793.19
2023-04-26T23:04:49.213Z,97796.38
2023-04-26T23:08:52.708Z,97790.81
2023-04-26T23:12:58.116Z,97793.03
2023-04-26T23:17:01.244Z,97788.59
2023-04-26T23:21:04.869Z,97792.59
2023-04-26T23:25:10.980Z,97799.50
2023-04-26T23:29:15.904Z,97795.34
2023-04-26T23:33:19.778Z,97787.59
2023-04-26T23:37:23.622Z,97790.97
2023-04-26T23:41:26.975Z,97789.09
2023-04-26T23:45:32.255Z,97788.31
2023-04-26T23:49:35.590Z,97784.38
2023-04-26T23:53:40.295Z,97779.69
2023-04-26T23:57:44.135Z,97790.53
